Latest Weather Observations for Ballarat

IDV60801

Issued at 4:22 am EDT Friday 7 October 2022 (issued every 10 minutes, with the page automatically refreshed every 10 minutes)

About weather observations | Map of weather stations | Latest weather observations for VIC | Other Formats
Station Details ID: 089002 Name: BALLARAT AERODROME Lat: -37.51 Lon: 143.79 Height: 435.2 m
Data from the previous 72 hours. | See also: Recent months at Ballarat
Date/Time
EDT
Temp
°C
App
Temp
°C
Dew
Point
°C
Rel
Hum
%
Delta-T
°C
Wind Press
QNH
hPa
Press
MSL
hPa
Rain since
9am
mm
Dir  Spd
km/h
Gust
km/h
Spd
kts
Gust
kts
07/04:12am 13.8 11.3 13.5 98 0.2 N 19 26 10 14 1010.3 1010.2 13.0
07/04:00am 13.8 11.7 13.5 98 0.2 N 17 20 9 11 1010.2 1010.1 13.0
07/03:30am 13.7 11.5 13.4 98 0.2 N 17 24 9 13 1010.4 1010.3 13.0
07/03:00am 13.7 11.5 13.4 98 0.2 N 17 22 9 12 1010.3 1010.2 13.0
07/02:30am 13.7 11.2 13.4 98 0.2 N 19 24 10 13 1010.9 1010.7 13.0
07/02:00am 13.5 10.9 13.2 98 0.2 N 19 24 10 13 1011.5 1011.3 13.0
07/01:50am 13.4 11.5 13.1 98 0.2 N 15 19 8 10 1011.5 1011.3 13.0
07/01:39am 13.3 10.9 12.8 97 0.3 N 17 20 9 11 1011.6 1011.4 13.0
07/01:30am 13.3 10.6 12.8 97 0.3 N 19 20 10 11 1011.7 1011.5 13.0
07/01:00am 13.5 10.6 12.9 96 0.3 N 20 26 11 14 1011.9 1011.7 13.0
07/12:58am 13.4 10.5 12.8 96 0.3 N 20 26 11 14 1011.9 1011.7 13.0
07/12:37am 13.3 10.9 12.8 97 0.3 NNE 17 20 9 11 1012.2 1012.1 13.0
07/12:30am 13.3 11.3 12.8 97 0.3 NNE 15 20 8 11 1012.2 1012.1 13.0
07/12:00am 12.9 11.9 12.4 97 0.3 NNE 9 13 5 7 1012.3 1012.2 13.0
 
Date/Time
EDT
Temp
°C
App
Temp
°C
Dew
Point
°C
Rel
Hum
%
Delta-T
°C
Wind Press
QNH
hPa
Press
MSL
hPa
Rain since
9am
mm
Dir  Spd
km/h
Gust
km/h
Spd
kts
Gust
kts
06/11:31pm 13.2 12.0 12.7 97 0.3 NNW 11 20 6 11 1012.5 1012.4 13.0
06/11:30pm 13.2 12.0 12.7 97 0.3 NNW 11 17 6 9 1012.5 1012.4 13.0
06/11:00pm 13.4 11.9 13.1 98 0.2 N 13 17 7 9 1012.8 1012.7 13.0
06/10:30pm 13.5 12.7 13.0 97 0.3 NW 9 11 5 6 1013.1 1013.0 13.0
06/10:00pm 13.8 11.6 13.3 97 0.3 N 17 20 9 11 1012.7 1012.6 13.0
06/09:30pm 14.1 11.1 13.6 97 0.3 N 22 30 12 16 1012.6 1012.5 12.8
06/09:08pm 14.2 11.2 13.6 96 0.3 N 22 30 12 16 1012.8 1012.7 12.8
06/09:00pm 14.2 11.2 13.6 96 0.3 N 22 30 12 16 1012.4 1012.3 12.8
06/08:40pm 13.8 9.8 13.0 95 0.4 N 26 35 14 19 1012.0 1011.8 12.8
06/08:30pm 14.1 8.8 13.1 94 0.6 N 33 46 18 25 1011.9 1011.7 12.8
06/08:27pm 14.2 8.2 13.2 94 0.6 N 37 59 20 32 1011.9 1011.7 12.8
06/08:11pm 14.4 9.9 13.8 96 0.3 NNE 30 48 16 26 1011.4 1011.2 12.0
06/08:00pm 14.4 11.0 13.6 95 0.5 N 24 37 13 20 1011.5 1011.3 10.2
06/07:56pm 14.4 10.3 13.8 96 0.3 N 28 46 15 25 1011.7 1011.5 9.8
06/07:53pm 14.4 9.5 13.6 95 0.5 N 32 46 17 25 1011.7 1011.5 9.4
06/07:30pm 14.5 11.5 13.7 95 0.5 NNE 22 41 12 22 1011.0 1010.8 7.2
06/07:07pm 14.7 10.1 13.4 92 0.7 NNE 30 48 16 26 1010.9 1010.7 7.0
06/07:00pm 14.4 9.8 13.4 94 0.6 NNE 30 48 16 26 1011.0 1010.8 6.6
06/06:30pm 14.2 9.6 13.4 95 0.5 NE 30 48 16 26 1011.1 1010.9 3.4
06/06:29pm 14.2 9.6 13.4 95 0.5 NE 30 48 16 26 1011.1 1010.9 3.4
06/06:16pm 14.0 9.7 13.2 95 0.5 NE 28 46 15 25 1011.2 1011.0 1.8
06/06:00pm 13.9 9.2 13.1 95 0.5 NNE 30 41 16 22 1011.5 1011.3 0.8
06/05:56pm 14.0 9.3 13.2 95 0.5 NNE 30 41 16 22 1011.6 1011.4 0.8
06/05:30pm 13.9 9.2 13.1 95 0.4 NNE 30 43 16 23 1011.6 1011.4 0.6
06/05:28pm 13.9 9.6 13.1 95 0.4 NNE 28 41 15 22 1011.6 1011.4 0.6
06/05:15pm 13.7 9.7 12.9 95 0.4 NNE 26 37 14 20 1011.7 1011.5 0.6
06/05:00pm 13.6 10.0 13.0 96 0.3 NNE 24 35 13 19 1011.8 1011.6 0.6
06/04:30pm 13.8 9.4 13.0 95 0.4 NNE 28 41 15 22 1012.0 1011.8 0.0
06/04:11pm 13.6 9.2 12.8 95 0.4 NNE 28 35 15 19 1012.4 1012.3 0.0
06/04:06pm 13.7 9.7 12.9 95 0.4 NNE 26 33 14 18 1012.5 1012.4 0.0
06/04:00pm 13.7 9.3 12.9 95 0.4 NNE 28 35 15 19 1012.6 1012.5 0.0
06/03:30pm 13.5 9.9 12.9 96 0.3 NNE 24 33 13 18 1013.1 1013.0 0.0
06/03:00pm 13.6 9.2 13.0 96 0.3 NNE 28 37 15 20 1013.6 1013.4 0.0
06/02:30pm 13.5 9.0 12.7 95 0.4 NNE 28 35 15 19 1014.2 1014.1 0.0
06/02:25pm 13.3 8.7 12.4 94 0.5 NNE 28 35 15 19 1014.2 1014.1 0.0
06/02:00pm 13.4 10.4 12.5 94 0.5 NNE 20 30 11 16 1014.6 1014.5 0.0
06/01:30pm 13.1 7.6 11.8 92 0.7 NNE 32 39 17 21 1014.9 1014.8 0.0
06/01:00pm 13.2 7.7 11.9 92 0.7 NNE 32 41 17 22 1014.9 1014.8 0.0
06/12:30pm 13.1 7.9 11.7 91 0.8 NNE 30 43 16 23 1015.2 1015.1 0.0
06/12:00pm 12.9 7.3 11.5 91 0.8 NNE 32 41 17 22 1015.5 1015.4 0.0
06/11:30am 12.9 8.5 11.8 93 0.6 NNE 26 35 14 19 1016.1 1016.0 0.0
06/11:00am 12.2 5.9 10.9 92 0.7 NNE 35 43 19 23 1016.1 1016.0 0.0
06/10:30am 11.8 5.1 10.9 94 0.5 NNE 37 46 20 25 1016.2 1016.1 0.0
06/10:27am 11.7 4.6 10.8 94 0.5 NNE 39 46 21 25 1016.1 1016.0 0.0
06/10:11am 11.7 5.3 10.8 94 0.5 NNE 35 44 19 24 1016.2 1016.1 0.0
06/10:00am 11.6 5.5 10.5 93 0.6 NNE 33 46 18 25 1016.4 1016.3 0.0
06/09:30am 11.3 6.1 10.4 94 0.5 NNE 28 39 15 21 1016.3 1016.2 0.0
06/09:00am 11.0 6.1 9.9 93 0.6 NNE 26 37 14 20 1016.5 1016.4 6.2
06/08:30am 11.0 5.7 9.8 92 0.6 NNE 28 33 15 18 1016.4 1016.3 6.2
06/08:00am 10.7 4.9 9.5 92 0.6 NNE 30 39 16 21 1016.3 1016.2 6.2
06/07:30am 10.5 5.0 9.3 92 0.6 NNE 28 39 15 21 1016.0 1015.9 6.2
06/07:00am 10.5 5.0 9.3 92 0.6 NNE 28 41 15 22 1015.7 1015.5 6.2
06/06:30am 10.4 4.6 9.3 93 0.6 NNE 30 44 16 24 1015.4 1015.3 6.2
06/06:00am 10.2 4.8 9.4 95 0.4 NNE 28 35 15 19 1015.3 1015.2 6.2
06/05:59am 10.2 4.7 9.3 94 0.5 NNE 28 35 15 19 1015.3 1015.2 6.2
06/05:42am 10.2 5.1 9.3 94 0.5 NNE 26 37 14 20 1015.5 1015.4 6.2
06/05:30am 10.3 4.5 9.4 94 0.5 NNE 30 37 16 20 1015.4 1015.3 6.2
06/05:00am 10.3 4.1 9.2 93 0.6 NNE 32 48 17 26 1015.2 1015.1 6.2
06/04:30am 10.2 5.1 9.1 93 0.6 NNE 26 41 14 22 1015.2 1015.1 6.2
06/04:00am 10.3 4.4 9.2 93 0.6 NNE 30 43 16 23 1015.2 1015.1 6.2
06/03:30am 10.4 4.6 9.3 93 0.6 NNE 30 43 16 23 1015.5 1015.4 6.2
06/03:00am 10.4 5.3 9.2 92 0.6 NNE 26 41 14 22 1015.9 1015.7 6.2
06/02:44am 10.5 5.4 9.3 92 0.6 NNE 26 37 14 20 1016.1 1016.0 6.2
06/02:31am 10.5 4.7 9.3 92 0.6 NNE 30 43 16 23 1016.0 1015.9 6.2
06/02:30am 10.4 4.2 9.2 92 0.6 NNE 32 43 17 23 1016.0 1015.9 6.2
06/02:19am 10.5 4.3 9.3 92 0.6 NNE 32 48 17 26 1015.8 1015.6 6.2
06/02:04am 10.4 4.5 9.2 92 0.6 NNE 30 46 16 25 1016.0 1015.9 6.2
06/02:00am 10.5 5.0 9.3 92 0.6 NNE 28 46 15 25 1016.1 1016.0 6.2
06/01:58am 10.5 5.0 9.3 92 0.6 NNE 28 46 15 25 1016.1 1016.0 6.2
06/01:53am 10.4 4.9 9.2 92 0.6 NNE 28 41 15 22 1016.2 1016.1 6.2
06/01:52am 10.5 4.7 9.3 92 0.6 NNE 30 41 16 22 1016.1 1016.0 6.2
06/01:30am 10.6 3.8 9.2 91 0.7 NNE 35 52 19 28 1016.2 1016.1 6.2
06/01:29am 10.6 4.2 9.4 92 0.6 NNE 33 52 18 28 1016.3 1016.2 6.2
06/01:00am 10.6 4.4 9.4 92 0.6 NNE 32 44 17 24 1016.6 1016.5 5.8
06/12:34am 10.8 3.6 9.2 90 0.8 NE 37 50 20 27 1017.0 1016.9 5.6
06/12:30am 10.9 4.1 9.2 89 0.9 NE 35 46 19 25 1017.0 1016.9 5.6
06/12:24am 11.1 4.2 9.0 87 1.1 NNE 35 46 19 25 1017.1 1017.0 5.6
06/12:00am 11.0 4.5 9.1 88 1.0 NE 33 44 18 24 1017.2 1017.1 5.6
 
Date/Time
EDT
Temp
°C
App
Temp
°C
Dew
Point
°C
Rel
Hum
%
Delta-T
°C
Wind Press
QNH
hPa
Press
MSL
hPa
Rain since
9am
mm
Dir  Spd
km/h
Gust
km/h
Spd
kts
Gust
kts
05/11:30pm 11.0 4.6 9.3 89 0.9 NE 33 46 18 25 1017.3 1017.2 5.6
05/11:00pm 10.7 4.9 9.5 92 0.6 NE 30 44 16 24 1017.7 1017.6 5.6
05/10:40pm 10.8 5.4 9.4 91 0.7 NE 28 44 15 24 1017.8 1017.7 5.6
05/10:30pm 10.9 4.7 9.3 90 0.8 NE 32 46 17 25 1017.8 1017.7 5.6
05/10:14pm 11.0 4.8 9.4 90 0.8 NE 32 44 17 24 1017.7 1017.6 5.6
05/10:00pm 10.9 4.7 9.3 90 0.8 NE 32 44 17 24 1017.7 1017.6 5.4
05/09:32pm 10.8 5.4 9.4 91 0.7 NE 28 43 15 23 1017.8 1017.7 4.0
05/09:30pm 10.8 5.4 9.4 91 0.7 NE 28 43 15 23 1017.8 1017.7 4.0
05/09:00pm 10.8 4.6 9.4 91 0.7 NE 32 44 17 24 1017.7 1017.6 2.8
05/08:30pm 10.9 5.1 9.3 90 0.8 NE 30 39 16 21 1017.7 1017.6 2.4
05/08:07pm 11.0 4.2 9.3 89 0.9 NE 35 56 19 30 1017.6 1017.5 2.4
05/08:00pm 10.9 4.5 9.2 89 0.9 ENE 33 50 18 27 1017.7 1017.6 2.4
05/07:55pm 10.9 4.7 9.2 89 0.9 NE 32 50 17 27 1017.6 1017.5 2.4
05/07:30pm 10.9 5.1 9.3 90 0.8 NE 30 44 16 24 1017.7 1017.6 2.2
05/07:00pm 11.0 4.8 9.4 90 0.8 NE 32 50 17 27 1017.6 1017.5 2.2
05/06:30pm 11.0 6.0 9.4 90 0.8 NE 26 37 14 20 1017.7 1017.6 2.2
05/06:00pm 11.2 5.8 9.5 89 0.9 NE 28 41 15 22 1017.7 1017.6 2.0
05/05:30pm 11.3 5.2 9.6 89 0.9 NE 32 44 17 24 1017.6 1017.5 2.0
05/05:20pm 11.5 5.1 9.4 87 1.1 NE 33 54 18 29 1017.4 1017.3 2.0
05/05:00pm 11.7 5.3 9.4 86 1.2 ENE 33 44 18 24 1017.4 1017.3 1.8
05/04:40pm 11.7 6.3 9.6 87 1.1 NE 28 46 15 25 1017.5 1017.4 1.8
05/04:30pm 11.7 6.3 9.4 86 1.2 ENE 28 39 15 21 1017.7 1017.6 1.8
05/04:00pm 11.7 5.4 9.6 87 1.1 ENE 33 44 18 24 1017.8 1017.7 1.6
05/03:35pm 12.0 5.9 9.7 86 1.2 NE 32 50 17 27 1018.3 1018.2 1.2
05/03:30pm 12.0 5.7 9.6 85 1.2 NE 33 50 18 27 1018.4 1018.3 1.2
05/03:06pm 12.2 6.0 9.4 83 1.4 NE 32 50 17 27 1018.5 1018.4 1.2
05/03:00pm 12.2 5.4 9.2 82 1.5 NE 35 50 19 27 1018.6 1018.5 1.0
05/02:30pm 12.2 5.0 9.2 82 1.5 NE 37 57 20 31 1019.0 1018.9 1.0
05/02:02pm 12.2 5.1 9.4 83 1.4 NE 37 56 20 30 1019.1 1019.0 1.0
05/02:00pm 12.3 5.2 9.7 84 1.4 NE 37 50 20 27 1019.1 1019.0 1.0
05/01:30pm 12.3 5.6 9.7 84 1.4 NE 35 48 19 26 1019.5 1019.4 1.0
05/01:05pm 12.3 5.5 9.3 82 1.5 NE 35 56 19 30 1019.7 1019.6 0.8
05/01:00pm 12.2 5.5 9.6 84 1.3 NE 35 48 19 26 1019.7 1019.6 0.8
05/12:30pm 12.0 4.9 9.7 86 1.2 NE 37 50 20 27 1020.2 1020.2 0.6
05/12:06pm 12.3 5.2 9.7 84 1.4 NE 37 56 20 30 1020.2 1020.2 0.4
05/12:00pm 12.3 5.2 9.5 83 1.4 NE 37 50 20 27 1020.2 1020.2 0.4
05/11:48am 12.6 6.5 9.8 83 1.5 NE 32 50 17 27 1020.4 1020.4 0.2
05/11:30am 12.2 5.8 9.4 83 1.4 NE 33 48 18 26 1020.6 1020.5 0.2
05/11:00am 11.9 6.1 9.5 85 1.2 NE 30 44 16 24 1020.8 1020.7 0.2
05/10:30am 11.7 5.9 9.3 85 1.2 ENE 30 41 16 22 1021.1 1021.0 0.0
05/10:00am 12.0 5.5 8.3 78 1.9 NE 32 44 17 24 1021.1 1021.0 0.0
05/09:30am 12.8 6.1 7.5 70 2.6 NE 32 43 17 23 1021.3 1021.2 0.0
05/09:23am 12.7 7.5 7.4 70 2.6 ENE 24 41 13 22 1021.3 1021.2 0.0
05/09:00am 10.1 6.2 7.0 81 1.5 ESE 17 22 9 12 1021.5 1021.4 0.0
05/08:30am 9.4 4.8 6.7 83 1.3 ESE 20 26 11 14 1021.4 1021.3 0.0
05/08:00am 9.1 4.7 6.4 83 1.3 ESE 19 24 10 13 1021.5 1021.4 0.0
05/07:30am 8.9 4.3 6.3 84 1.2 SE 20 26 11 14 1021.2 1021.1 0.0
05/07:00am 9.1 4.5 6.7 85 1.1 ESE 20 24 11 13 1020.9 1020.8 0.0
05/06:30am 9.1 4.5 6.5 84 1.2 ESE 20 24 11 13 1020.7 1020.6 0.0
05/06:00am 8.9 5.3 6.7 86 1.0 E 15 19 8 10 1020.8 1020.7 0.0
05/05:30am 9.0 4.0 6.6 85 1.1 ESE 22 30 12 16 1020.3 1020.3 0.0
05/05:00am 8.8 3.5 6.6 86 1.0 ESE 24 32 13 17 1020.2 1020.2 0.0
05/04:30am 8.7 3.3 6.5 86 1.0 ESE 24 32 13 17 1020.4 1020.4 0.0
05/04:00am 8.5 3.2 6.8 89 0.8 ESE 24 39 13 21 1020.4 1020.4 0.0
05/03:30am 8.2 2.9 6.7 90 0.7 ESE 24 32 13 17 1020.3 1020.3 0.0
05/03:00am 8.0 1.9 6.5 90 0.7 ESE 28 35 15 19 1020.3 1020.3 0.0
05/02:30am 8.0 1.9 6.5 90 0.7 ESE 28 35 15 19 1020.7 1020.6 0.0
05/02:00am 8.1 1.6 6.6 90 0.7 ESE 30 35 16 19 1020.8 1020.7 0.0
05/01:30am 8.0 1.5 6.6 91 0.7 ESE 30 41 16 22 1021.2 1021.1 0.0
05/01:00am 8.2 2.2 7.0 92 0.6 ESE 28 35 15 19 1021.3 1021.2 0.0
05/12:56am 8.2 2.2 7.0 92 0.6 ESE 28 35 15 19 1021.3 1021.2 0.0
05/12:30am 8.4 1.7 7.2 92 0.6 ESE 32 41 17 22 1021.4 1021.3 0.0
05/12:00am 8.4 1.1 7.2 92 0.6 ESE 35 48 19 26 1021.8 1021.7 0.0
 
Date/Time
EDT
Temp
°C
App
Temp
°C
Dew
Point
°C
Rel
Hum
%
Delta-T
°C
Wind Press
QNH
hPa
Press
MSL
hPa
Rain since
9am
mm
Dir  Spd
km/h
Gust
km/h
Spd
kts
Gust
kts
04/11:41pm 8.3 1.5 6.9 91 0.7 ESE 32 43 17 23 1021.8 1021.7 0.0
04/11:30pm 8.2 1.1 6.3 88 0.9 ESE 33 44 18 24 1021.6 1021.5 0.0
04/11:00pm 8.1 0.1 5.6 84 1.2 ESE 37 46 20 25 1021.8 1021.7 0.0
04/10:30pm 7.8 0.1 5.4 85 1.1 ESE 35 46 19 25 1021.5 1021.4 0.0
04/10:00pm 7.8 0.6 5.1 83 1.2 ESE 32 41 17 22 1021.7 1021.6 0.0
04/09:30pm 8.1 1.0 5.4 83 1.2 ESE 32 41 17 22 1022.0 1022.0 0.0
04/09:00pm 8.5 2.1 5.4 81 1.4 ESE 28 39 15 21 1022.0 1022.0 0.0
04/08:30pm 8.7 1.7 5.8 82 1.4 SE 32 41 17 22 1021.9 1021.9 0.0
04/08:00pm 8.9 2.0 6.3 84 1.2 ESE 32 43 17 23 1021.6 1021.5 0.0
04/07:30pm 9.2 2.1 6.3 82 1.4 ESE 33 44 18 24 1021.9 1021.9 0.0
04/07:19pm 9.4 2.5 6.5 82 1.4 ESE 32 50 17 27 1021.8 1021.7 0.0
04/07:00pm 9.6 2.6 6.7 82 1.4 ESE 33 43 18 23 1021.7 1021.6 0.0
04/06:30pm 9.8 3.0 6.9 82 1.4 SE 32 41 17 22 1021.8 1021.7 0.0
04/06:00pm 10.1 3.2 7.3 83 1.4 ESE 33 43 18 23 1021.8 1021.7 0.0
04/05:50pm 10.1 2.8 7.3 83 1.4 ESE 35 46 19 25 1021.7 1021.6 0.0
04/05:30pm 10.3 3.5 7.5 83 1.4 ESE 33 48 18 26 1021.8 1021.7 0.0
04/05:00pm 10.3 3.1 7.7 84 1.3 ESE 35 44 19 24 1022.1 1022.1 0.0
04/04:30pm 10.8 4.2 8.4 85 1.2 SE 33 43 18 23 1022.2 1022.2 0.0
04/04:00pm 11.0 4.4 8.6 85 1.2 SE 33 43 18 23 1022.1 1022.1 0.0
04/03:30pm 11.3 4.8 8.9 85 1.2 SE 33 44 18 24 1022.2 1022.2 0.0
04/03:00pm 11.7 4.9 9.3 85 1.2 SE 35 43 19 23 1022.2 1022.2 0.0
04/02:30pm 12.2 5.7 9.0 81 1.6 ESE 33 43 18 23 1022.2 1022.2 0.0
04/02:00pm 12.5 6.1 9.5 82 1.6 SE 33 43 18 23 1022.3 1022.3 0.0
04/01:35pm 12.5 6.4 9.7 83 1.5 SE 32 41 17 22 1022.4 1022.4 0.0
04/01:30pm 13.5 7.6 10.3 81 1.7 SE 32 43 17 23 1022.3 1022.3 0.0
04/01:00pm 13.5 7.2 9.6 77 2.0 ESE 33 41 18 22 1022.3 1022.3 0.0
04/12:30pm 13.8 7.6 9.5 75 2.3 SE 32 39 17 21 1022.6 1022.6 0.0
04/12:00pm 14.2 8.9 10.0 76 2.2 SE 28 37 15 20 1022.5 1022.5 0.0
04/11:30am 13.5 8.5 9.6 77 2.0 ESE 26 32 14 17 1022.6 1022.6 0.0
04/11:00am 13.2 7.8 9.5 78 1.9 SE 28 32 15 17 1022.6 1022.6 0.0
04/10:30am 13.6 9.0 9.5 76 2.1 SE 24 32 13 17 1022.3 1022.3 0.0
04/10:00am 12.6 7.9 9.2 80 1.7 SE 24 32 13 17 1022.3 1022.3 0.0
04/09:30am 10.9 5.3 8.7 86 1.1 ESE 28 33 15 18 1022.4 1022.4 0.0
04/09:00am 10.6 4.6 8.7 88 1.0 ESE 30 37 16 20 1022.4 1022.4 0.6
04/08:30am 9.4 4.0 7.8 90 0.8 SE 26 32 14 17 1022.3 1022.3 0.6
04/08:00am 9.0 4.6 7.3 89 0.8 ESE 20 26 11 14 1022.0 1022.0 0.6
04/07:30am 9.3 4.1 7.1 86 1.1 SE 24 30 13 16 1021.9 1021.9 0.6
04/07:00am 9.2 4.3 6.8 85 1.1 SE 22 26 12 14 1021.5 1021.4 0.6
04/06:30am 9.3 5.4 6.9 85 1.2 SSE 17 22 9 12 1021.1 1021.0 0.6
04/06:00am 9.4 5.9 7.0 85 1.2 ESE 15 17 8 9 1020.8 1020.7 0.6
04/05:30am 8.9 5.6 6.5 85 1.1 ESE 13 15 7 8 1020.7 1020.6 0.4
04/05:00am 9.2 5.3 7.0 86 1.1 ESE 17 19 9 10 1020.2 1020.2 0.4
04/04:30am 9.2 5.7 7.3 88 0.9 SE 15 19 8 10 1020.2 1020.2 0.4

Other formats

Comma delimited format used in spreadsheet applications
http://www.bom.gov.au/fwo/IDV60801/IDV60801.94852.axf

JavaScript Object Notation format (JSON) in row-major order
http://www.bom.gov.au/fwo/IDV60801/IDV60801.94852.json

Data quality

Most of these data are generated automatically and are frequently updated. Quality checks on data are not normally performed. It is possible for incorrect values to appear. Refer to information at About Latest Weather Observations and please check the disclaimer before using these data.